sensor_id;sensor_type;location;lat;lon;timestamp;P1;durP1;ratioP1;P2;durP2;ratioP2
33780;SDS011;20097;50.832;19.100;2023-01-28T00:04:40;57.65;;;26.48;;
33780;SDS011;20097;50.832;19.100;2023-01-28T00:14:50;61.70;;;26.45;;
33780;SDS011;20097;50.832;19.100;2023-01-28T00:25:01;55.35;;;25.63;;
33780;SDS011;20097;50.832;19.100;2023-01-28T00:30:07;59.50;;;26.83;;
33780;SDS011;20097;50.832;19.100;2023-01-28T00:35:13;58.13;;;27.08;;
33780;SDS011;20097;50.832;19.100;2023-01-28T00:40:20;63.90;;;27.90;;
33780;SDS011;20097;50.832;19.100;2023-01-28T00:45:24;61.97;;;26.92;;
33780;SDS011;20097;50.832;19.100;2023-01-28T00:50:29;58.83;;;26.48;;
33780;SDS011;20097;50.832;19.100;2023-01-28T00:55:35;56.10;;;27.10;;
33780;SDS011;20097;50.832;19.100;2023-01-28T01:00:40;58.60;;;25.95;;
33780;SDS011;20097;50.832;19.100;2023-01-28T01:05:46;60.33;;;26.08;;
33780;SDS011;20097;50.832;19.100;2023-01-28T01:10:52;56.15;;;24.83;;
33780;SDS011;20097;50.832;19.100;2023-01-28T01:16:01;51.63;;;22.98;;
33780;SDS011;20097;50.832;19.100;2023-01-28T01:21:08;47.83;;;22.65;;
33780;SDS011;20097;50.832;19.100;2023-01-28T01:26:15;57.42;;;26.17;;
33780;SDS011;20097;50.832;19.100;2023-01-28T01:31:20;61.33;;;27.15;;
33780;SDS011;20097;50.832;19.100;2023-01-28T01:36:26;61.35;;;27.73;;
33780;SDS011;20097;50.832;19.100;2023-01-28T01:41:32;57.05;;;26.30;;
33780;SDS011;20097;50.832;19.100;2023-01-28T01:46:37;65.03;;;28.25;;
33780;SDS011;20097;50.832;19.100;2023-01-28T01:51:47;60.60;;;29.02;;
33780;SDS011;20097;50.832;19.100;2023-01-28T01:56:58;49.58;;;23.92;;
33780;SDS011;20097;50.832;19.100;2023-01-28T02:02:05;46.55;;;24.05;;
33780;SDS011;20097;50.832;19.100;2023-01-28T02:07:13;47.78;;;22.75;;
33780;SDS011;20097;50.832;19.100;2023-01-28T02:12:23;42.28;;;19.25;;
33780;SDS011;20097;50.832;19.100;2023-01-28T02:17:31;43.67;;;20.48;;
33780;SDS011;20097;50.832;19.100;2023-01-28T02:22:50;45.63;;;21.15;;
33780;SDS011;20097;50.832;19.100;2023-01-28T02:28:31;49.75;;;20.60;;
33780;SDS011;20097;50.832;19.100;2023-01-28T02:33:43;41.78;;;19.60;;
33780;SDS011;20097;50.832;19.100;2023-01-28T02:44:06;40.63;;;19.88;;
33780;SDS011;20097;50.832;19.100;2023-01-28T02:49:11;46.90;;;20.98;;
33780;SDS011;20097;50.832;19.100;2023-01-28T02:54:23;49.42;;;21.25;;
33780;SDS011;20097;50.832;19.100;2023-01-28T02:59:41;43.28;;;21.08;;
33780;SDS011;20097;50.832;19.100;2023-01-28T03:04:55;47.58;;;21.10;;
33780;SDS011;20097;50.832;19.100;2023-01-28T03:10:08;46.17;;;21.98;;
33780;SDS011;20097;50.832;19.100;2023-01-28T03:15:20;43.83;;;19.80;;
33780;SDS011;20097;50.832;19.100;2023-01-28T03:20:47;51.65;;;21.85;;
33780;SDS011;20097;50.832;19.100;2023-01-28T03:26:17;44.15;;;20.90;;
33780;SDS011;20097;50.832;19.100;2023-01-28T03:31:44;48.15;;;22.33;;
33780;SDS011;20097;50.832;19.100;2023-01-28T03:37:07;51.28;;;22.95;;
33780;SDS011;20097;50.832;19.100;2023-01-28T03:42:19;46.78;;;21.67;;
33780;SDS011;20097;50.832;19.100;2023-01-28T03:47:39;52.78;;;24.73;;
33780;SDS011;20097;50.832;19.100;2023-01-28T03:52:46;52.50;;;22.67;;
33780;SDS011;20097;50.832;19.100;2023-01-28T03:58:01;47.85;;;22.80;;
33780;SDS011;20097;50.832;19.100;2023-01-28T04:03:10;56.17;;;23.60;;
33780;SDS011;20097;50.832;19.100;2023-01-28T04:08:38;44.78;;;21.13;;
33780;SDS011;20097;50.832;19.100;2023-01-28T04:14:26;50.53;;;22.13;;
33780;SDS011;20097;50.832;19.100;2023-01-28T04:19:45;52.83;;;23.00;;
33780;SDS011;20097;50.832;19.100;2023-01-28T04:24:51;49.60;;;22.88;;
33780;SDS011;20097;50.832;19.100;2023-01-28T04:29:56;50.78;;;23.15;;
33780;SDS011;20097;50.832;19.100;2023-01-28T04:35:15;37.58;;;18.02;;
33780;SDS011;20097;50.832;19.100;2023-01-28T04:40:38;38.92;;;17.95;;
33780;SDS011;20097;50.832;19.100;2023-01-28T04:45:46;28.20;;;15.35;;
33780;SDS011;20097;50.832;19.100;2023-01-28T04:51:16;33.67;;;15.73;;
33780;SDS011;20097;50.832;19.100;2023-01-28T04:56:42;30.75;;;14.32;;
33780;SDS011;20097;50.832;19.100;2023-01-28T05:01:48;29.73;;;14.77;;
33780;SDS011;20097;50.832;19.100;2023-01-28T05:06:54;26.25;;;13.23;;
33780;SDS011;20097;50.832;19.100;2023-01-28T05:12:05;28.02;;;12.95;;
33780;SDS011;20097;50.832;19.100;2023-01-28T05:17:12;24.05;;;12.52;;
33780;SDS011;20097;50.832;19.100;2023-01-28T05:27:48;26.30;;;13.15;;
33780;SDS011;20097;50.832;19.100;2023-01-28T05:32:54;24.98;;;12.52;;
33780;SDS011;20097;50.832;19.100;2023-01-28T05:38:01;25.52;;;13.20;;
33780;SDS011;20097;50.832;19.100;2023-01-28T05:43:06;30.15;;;12.75;;
33780;SDS011;20097;50.832;19.100;2023-01-28T05:48:19;24.52;;;12.13;;
33780;SDS011;20097;50.832;19.100;2023-01-28T05:53:36;26.40;;;14.20;;
33780;SDS011;20097;50.832;19.100;2023-01-28T05:58:41;24.75;;;12.27;;
33780;SDS011;20097;50.832;19.100;2023-01-28T06:08:51;25.38;;;12.73;;
33780;SDS011;20097;50.832;19.100;2023-01-28T06:14:01;24.77;;;13.38;;
33780;SDS011;20097;50.832;19.100;2023-01-28T06:19:17;23.85;;;13.15;;
33780;SDS011;20097;50.832;19.100;2023-01-28T06:24:23;28.15;;;14.45;;
33780;SDS011;20097;50.832;19.100;2023-01-28T06:29:28;24.60;;;12.55;;
33780;SDS011;20097;50.832;19.100;2023-01-28T06:39:38;26.17;;;13.63;;
33780;SDS011;20097;50.832;19.100;2023-01-28T06:44:42;26.45;;;12.77;;
33780;SDS011;20097;50.832;19.100;2023-01-28T06:54:52;29.00;;;12.50;;
33780;SDS011;20097;50.832;19.100;2023-01-28T06:59:56;23.75;;;13.30;;
33780;SDS011;20097;50.832;19.100;2023-01-28T07:05:00;29.63;;;13.27;;
33780;SDS011;20097;50.832;19.100;2023-01-28T07:10:07;27.95;;;12.80;;
33780;SDS011;20097;50.832;19.100;2023-01-28T07:15:13;23.55;;;12.18;;
33780;SDS011;20097;50.832;19.100;2023-01-28T07:20:18;22.10;;;11.60;;
33780;SDS011;20097;50.832;19.100;2023-01-28T07:25:24;29.05;;;13.75;;
33780;SDS011;20097;50.832;19.100;2023-01-28T07:30:29;23.80;;;11.65;;
33780;SDS011;20097;50.832;19.100;2023-01-28T07:35:34;23.50;;;12.15;;
33780;SDS011;20097;50.832;19.100;2023-01-28T07:40:39;25.52;;;13.68;;
33780;SDS011;20097;50.832;19.100;2023-01-28T07:45:44;24.52;;;12.27;;
33780;SDS011;20097;50.832;19.100;2023-01-28T07:50:50;29.33;;;14.18;;
33780;SDS011;20097;50.832;19.100;2023-01-28T07:55:59;31.42;;;15.32;;
33780;SDS011;20097;50.832;19.100;2023-01-28T08:01:04;29.58;;;14.77;;
33780;SDS011;20097;50.832;19.100;2023-01-28T08:11:14;34.70;;;16.02;;
33780;SDS011;20097;50.832;19.100;2023-01-28T08:16:18;29.08;;;14.73;;
33780;SDS011;20097;50.832;19.100;2023-01-28T08:21:23;31.55;;;14.80;;
33780;SDS011;20097;50.832;19.100;2023-01-28T08:26:29;33.30;;;15.93;;
33780;SDS011;20097;50.832;19.100;2023-01-28T08:31:34;35.13;;;16.27;;
33780;SDS011;20097;50.832;19.100;2023-01-28T08:41:44;39.47;;;16.97;;
33780;SDS011;20097;50.832;19.100;2023-01-28T08:46:48;29.30;;;14.55;;
33780;SDS011;20097;50.832;19.100;2023-01-28T08:51:52;28.88;;;14.85;;
33780;SDS011;20097;50.832;19.100;2023-01-28T08:56:59;35.45;;;16.55;;
33780;SDS011;20097;50.832;19.100;2023-01-28T09:02:03;26.92;;;13.23;;
33780;SDS011;20097;50.832;19.100;2023-01-28T09:07:07;30.33;;;15.10;;
33780;SDS011;20097;50.832;19.100;2023-01-28T09:12:13;25.95;;;14.18;;
33780;SDS011;20097;50.832;19.100;2023-01-28T09:17:18;35.85;;;16.45;;
33780;SDS011;20097;50.832;19.100;2023-01-28T09:22:23;34.33;;;16.63;;
33780;SDS011;20097;50.832;19.100;2023-01-28T09:27:29;29.90;;;15.48;;
33780;SDS011;20097;50.832;19.100;2023-01-28T09:32:34;28.30;;;15.15;;
33780;SDS011;20097;50.832;19.100;2023-01-28T09:37:38;31.50;;;14.93;;
33780;SDS011;20097;50.832;19.100;2023-01-28T09:48:00;31.98;;;17.63;;
33780;SDS011;20097;50.832;19.100;2023-01-28T09:53:09;33.78;;;17.55;;
33780;SDS011;20097;50.832;19.100;2023-01-28T09:58:21;38.95;;;17.67;;
33780;SDS011;20097;50.832;19.100;2023-01-28T10:03:28;41.97;;;21.10;;
33780;SDS011;20097;50.832;19.100;2023-01-28T10:08:56;41.80;;;18.27;;
33780;SDS011;20097;50.832;19.100;2023-01-28T10:14:22;35.00;;;18.00;;
33780;SDS011;20097;50.832;19.100;2023-01-28T10:19:43;33.60;;;17.15;;
33780;SDS011;20097;50.832;19.100;2023-01-28T10:24:55;41.33;;;19.67;;
33780;SDS011;20097;50.832;19.100;2023-01-28T10:30:16;40.53;;;19.48;;
33780;SDS011;20097;50.832;19.100;2023-01-28T10:35:23;40.85;;;20.13;;
33780;SDS011;20097;50.832;19.100;2023-01-28T10:40:28;41.40;;;20.45;;
33780;SDS011;20097;50.832;19.100;2023-01-28T10:50:48;40.10;;;19.73;;
33780;SDS011;20097;50.832;19.100;2023-01-28T10:55:56;40.47;;;17.85;;
33780;SDS011;20097;50.832;19.100;2023-01-28T11:01:05;47.85;;;24.95;;
33780;SDS011;20097;50.832;19.100;2023-01-28T11:06:17;44.10;;;20.65;;
33780;SDS011;20097;50.832;19.100;2023-01-28T11:11:28;45.50;;;18.60;;
33780;SDS011;20097;50.832;19.100;2023-01-28T11:16:33;42.75;;;19.60;;
33780;SDS011;20097;50.832;19.100;2023-01-28T11:21:46;38.97;;;18.30;;
33780;SDS011;20097;50.832;19.100;2023-01-28T11:26:54;36.33;;;16.85;;
33780;SDS011;20097;50.832;19.100;2023-01-28T11:32:04;37.75;;;17.67;;
33780;SDS011;20097;50.832;19.100;2023-01-28T11:37:19;39.08;;;18.13;;
33780;SDS011;20097;50.832;19.100;2023-01-28T11:42:25;43.35;;;20.08;;
33780;SDS011;20097;50.832;19.100;2023-01-28T11:47:46;43.00;;;19.92;;
33780;SDS011;20097;50.832;19.100;2023-01-28T11:53:21;49.88;;;21.00;;
33780;SDS011;20097;50.832;19.100;2023-01-28T11:59:00;43.95;;;22.63;;
33780;SDS011;20097;50.832;19.100;2023-01-28T12:04:23;43.92;;;20.90;;
33780;SDS011;20097;50.832;19.100;2023-01-28T12:09:48;39.25;;;18.98;;
33780;SDS011;20097;50.832;19.100;2023-01-28T12:15:09;34.78;;;18.08;;
33780;SDS011;20097;50.832;19.100;2023-01-28T12:20:55;44.33;;;19.98;;
33780;SDS011;20097;50.832;19.100;2023-01-28T12:26:10;46.75;;;18.27;;
33780;SDS011;20097;50.832;19.100;2023-01-28T12:31:26;48.85;;;21.48;;
33780;SDS011;20097;50.832;19.100;2023-01-28T12:36:53;43.30;;;20.08;;
33780;SDS011;20097;50.832;19.100;2023-01-28T12:42:09;37.22;;;18.00;;
33780;SDS011;20097;50.832;19.100;2023-01-28T12:47:23;44.13;;;18.60;;
33780;SDS011;20097;50.832;19.100;2023-01-28T12:52:35;45.88;;;20.95;;
33780;SDS011;20097;50.832;19.100;2023-01-28T12:57:46;40.38;;;18.98;;
33780;SDS011;20097;50.832;19.100;2023-01-28T13:02:56;39.15;;;18.75;;
33780;SDS011;20097;50.832;19.100;2023-01-28T13:08:14;43.47;;;19.98;;
33780;SDS011;20097;50.832;19.100;2023-01-28T13:13:26;44.65;;;20.52;;
33780;SDS011;20097;50.832;19.100;2023-01-28T13:18:41;42.95;;;20.40;;
33780;SDS011;20097;50.832;19.100;2023-01-28T13:23:49;46.53;;;21.02;;
33780;SDS011;20097;50.832;19.100;2023-01-28T13:29:14;44.05;;;20.67;;
33780;SDS011;20097;50.832;19.100;2023-01-28T13:34:32;50.08;;;22.83;;
33780;SDS011;20097;50.832;19.100;2023-01-28T13:39:44;49.15;;;22.77;;
33780;SDS011;20097;50.832;19.100;2023-01-28T13:44:51;45.85;;;24.63;;
33780;SDS011;20097;50.832;19.100;2023-01-28T13:49:57;46.08;;;21.70;;
33780;SDS011;20097;50.832;19.100;2023-01-28T13:55:13;48.83;;;22.00;;
33780;SDS011;20097;50.832;19.100;2023-01-28T14:00:51;48.45;;;22.73;;
33780;SDS011;20097;50.832;19.100;2023-01-28T14:12:20;45.17;;;21.48;;
33780;SDS011;20097;50.832;19.100;2023-01-28T14:17:47;41.15;;;20.10;;
33780;SDS011;20097;50.832;19.100;2023-01-28T14:22:56;42.70;;;20.77;;
33780;SDS011;20097;50.832;19.100;2023-01-28T14:28:06;48.63;;;21.83;;
33780;SDS011;20097;50.832;19.100;2023-01-28T14:33:18;47.00;;;21.30;;
33780;SDS011;20097;50.832;19.100;2023-01-28T14:38:26;50.38;;;22.35;;
33780;SDS011;20097;50.832;19.100;2023-01-28T14:43:32;41.40;;;22.30;;
33780;SDS011;20097;50.832;19.100;2023-01-28T14:48:41;49.83;;;23.27;;
33780;SDS011;20097;50.832;19.100;2023-01-28T14:54:02;45.83;;;22.67;;
33780;SDS011;20097;50.832;19.100;2023-01-28T14:59:36;43.83;;;22.05;;
33780;SDS011;20097;50.832;19.100;2023-01-28T15:04:46;50.78;;;24.83;;
33780;SDS011;20097;50.832;19.100;2023-01-28T15:09:59;51.60;;;24.30;;
33780;SDS011;20097;50.832;19.100;2023-01-28T15:15:09;50.65;;;24.63;;
33780;SDS011;20097;50.832;19.100;2023-01-28T15:20:18;51.38;;;24.52;;
33780;SDS011;20097;50.832;19.100;2023-01-28T15:25:27;51.92;;;23.83;;
33780;SDS011;20097;50.832;19.100;2023-01-28T15:30:34;45.90;;;22.85;;
33780;SDS011;20097;50.832;19.100;2023-01-28T15:35:45;56.67;;;25.13;;
33780;SDS011;20097;50.832;19.100;2023-01-28T15:40:53;50.08;;;23.17;;
33780;SDS011;20097;50.832;19.100;2023-01-28T15:46:01;42.33;;;21.77;;
33780;SDS011;20097;50.832;19.100;2023-01-28T15:51:16;46.88;;;23.40;;
33780;SDS011;20097;50.832;19.100;2023-01-28T15:56:24;43.28;;;19.65;;
33780;SDS011;20097;50.832;19.100;2023-01-28T16:01:33;32.97;;;17.88;;
33780;SDS011;20097;50.832;19.100;2023-01-28T16:06:38;33.83;;;15.95;;
33780;SDS011;20097;50.832;19.100;2023-01-28T16:11:43;35.28;;;15.85;;
33780;SDS011;20097;50.832;19.100;2023-01-28T16:16:49;32.28;;;16.33;;
33780;SDS011;20097;50.832;19.100;2023-01-28T16:21:56;33.58;;;17.25;;
33780;SDS011;20097;50.832;19.100;2023-01-28T16:27:01;32.92;;;15.52;;
33780;SDS011;20097;50.832;19.100;2023-01-28T16:37:33;28.27;;;15.88;;
33780;SDS011;20097;50.832;19.100;2023-01-28T16:42:42;37.40;;;18.13;;
33780;SDS011;20097;50.832;19.100;2023-01-28T16:47:48;37.63;;;18.02;;
33780;SDS011;20097;50.832;19.100;2023-01-28T16:52:53;34.65;;;16.48;;
33780;SDS011;20097;50.832;19.100;2023-01-28T16:57:59;32.88;;;16.67;;
33780;SDS011;20097;50.832;19.100;2023-01-28T17:03:05;33.08;;;16.52;;
33780;SDS011;20097;50.832;19.100;2023-01-28T17:08:09;39.30;;;19.48;;
33780;SDS011;20097;50.832;19.100;2023-01-28T17:13:14;37.08;;;19.00;;
33780;SDS011;20097;50.832;19.100;2023-01-28T17:18:20;35.22;;;17.65;;
33780;SDS011;20097;50.832;19.100;2023-01-28T17:23:24;38.67;;;19.20;;
33780;SDS011;20097;50.832;19.100;2023-01-28T17:28:29;39.95;;;18.88;;
33780;SDS011;20097;50.832;19.100;2023-01-28T17:33:34;36.03;;;16.58;;
33780;SDS011;20097;50.832;19.100;2023-01-28T17:38:38;33.67;;;17.65;;
33780;SDS011;20097;50.832;19.100;2023-01-28T17:43:51;37.08;;;18.15;;
33780;SDS011;20097;50.832;19.100;2023-01-28T17:48:58;38.70;;;19.08;;
33780;SDS011;20097;50.832;19.100;2023-01-28T17:54:04;36.10;;;19.02;;
33780;SDS011;20097;50.832;19.100;2023-01-28T17:59:09;44.25;;;19.60;;
33780;SDS011;20097;50.832;19.100;2023-01-28T18:04:20;39.75;;;20.23;;
33780;SDS011;20097;50.832;19.100;2023-01-28T18:09:24;33.92;;;17.48;;
33780;SDS011;20097;50.832;19.100;2023-01-28T18:19:34;35.00;;;17.85;;
33780;SDS011;20097;50.832;19.100;2023-01-28T18:24:39;35.03;;;18.35;;
33780;SDS011;20097;50.832;19.100;2023-01-28T18:29:43;41.00;;;19.23;;
33780;SDS011;20097;50.832;19.100;2023-01-28T18:34:50;40.58;;;18.63;;
33780;SDS011;20097;50.832;19.100;2023-01-28T18:39:55;36.55;;;19.73;;
33780;SDS011;20097;50.832;19.100;2023-01-28T18:45:00;43.80;;;20.15;;
33780;SDS011;20097;50.832;19.100;2023-01-28T18:55:12;35.40;;;19.50;;
33780;SDS011;20097;50.832;19.100;2023-01-28T19:00:17;37.38;;;19.63;;
33780;SDS011;20097;50.832;19.100;2023-01-28T19:05:23;40.55;;;19.20;;
33780;SDS011;20097;50.832;19.100;2023-01-28T19:10:28;39.00;;;18.55;;
33780;SDS011;20097;50.832;19.100;2023-01-28T19:15:33;32.55;;;17.02;;
33780;SDS011;20097;50.832;19.100;2023-01-28T19:20:39;29.77;;;15.50;;
33780;SDS011;20097;50.832;19.100;2023-01-28T19:25:44;31.83;;;16.75;;
33780;SDS011;20097;50.832;19.100;2023-01-28T19:30:48;29.10;;;15.95;;
33780;SDS011;20097;50.832;19.100;2023-01-28T19:41:01;28.30;;;14.65;;
33780;SDS011;20097;50.832;19.100;2023-01-28T19:46:08;28.58;;;14.70;;
33780;SDS011;20097;50.832;19.100;2023-01-28T19:51:17;26.23;;;14.23;;
33780;SDS011;20097;50.832;19.100;2023-01-28T19:56:23;21.30;;;10.75;;
33780;SDS011;20097;50.832;19.100;2023-01-28T20:01:31;12.35;;;7.43;;
33780;SDS011;20097;50.832;19.100;2023-01-28T20:06:38;15.00;;;7.68;;
33780;SDS011;20097;50.832;19.100;2023-01-28T20:11:42;15.60;;;8.73;;
33780;SDS011;20097;50.832;19.100;2023-01-28T20:16:47;15.15;;;8.30;;
33780;SDS011;20097;50.832;19.100;2023-01-28T20:21:52;13.90;;;8.50;;
33780;SDS011;20097;50.832;19.100;2023-01-28T20:26:57;18.85;;;9.55;;
33780;SDS011;20097;50.832;19.100;2023-01-28T20:32:01;22.95;;;10.90;;
33780;SDS011;20097;50.832;19.100;2023-01-28T20:37:20;22.80;;;13.18;;
33780;SDS011;20097;50.832;19.100;2023-01-28T20:42:24;22.48;;;11.60;;
33780;SDS011;20097;50.832;19.100;2023-01-28T20:52:35;27.20;;;14.20;;
33780;SDS011;20097;50.832;19.100;2023-01-28T20:57:39;24.17;;;13.93;;
33780;SDS011;20097;50.832;19.100;2023-01-28T21:02:46;24.77;;;13.82;;
33780;SDS011;20097;50.832;19.100;2023-01-28T21:07:52;24.52;;;11.55;;
33780;SDS011;20097;50.832;19.100;2023-01-28T21:12:56;25.15;;;12.77;;
33780;SDS011;20097;50.832;19.100;2023-01-28T21:18:00;26.52;;;13.60;;
33780;SDS011;20097;50.832;19.100;2023-01-28T21:23:06;25.27;;;14.65;;
33780;SDS011;20097;50.832;19.100;2023-01-28T21:28:16;29.02;;;14.88;;
33780;SDS011;20097;50.832;19.100;2023-01-28T21:33:22;30.48;;;14.02;;
33780;SDS011;20097;50.832;19.100;2023-01-28T21:38:27;23.80;;;12.82;;
33780;SDS011;20097;50.832;19.100;2023-01-28T21:43:32;24.83;;;12.25;;
33780;SDS011;20097;50.832;19.100;2023-01-28T21:48:37;20.95;;;12.55;;
33780;SDS011;20097;50.832;19.100;2023-01-28T21:53:42;33.53;;;16.45;;
33780;SDS011;20097;50.832;19.100;2023-01-28T21:58:47;27.58;;;14.30;;
33780;SDS011;20097;50.832;19.100;2023-01-28T22:04:09;26.42;;;13.63;;
33780;SDS011;20097;50.832;19.100;2023-01-28T22:09:15;18.58;;;10.63;;
33780;SDS011;20097;50.832;19.100;2023-01-28T22:14:20;24.05;;;12.07;;
33780;SDS011;20097;50.832;19.100;2023-01-28T22:24:30;26.88;;;13.68;;
33780;SDS011;20097;50.832;19.100;2023-01-28T22:29:35;27.83;;;14.77;;
33780;SDS011;20097;50.832;19.100;2023-01-28T22:34:39;26.55;;;14.85;;
33780;SDS011;20097;50.832;19.100;2023-01-28T22:39:46;19.40;;;10.05;;
33780;SDS011;20097;50.832;19.100;2023-01-28T22:44:51;19.33;;;9.85;;
33780;SDS011;20097;50.832;19.100;2023-01-28T22:49:56;22.65;;;11.73;;
33780;SDS011;20097;50.832;19.100;2023-01-28T22:55:02;21.45;;;11.60;;
33780;SDS011;20097;50.832;19.100;2023-01-28T23:00:08;19.73;;;10.48;;
33780;SDS011;20097;50.832;19.100;2023-01-28T23:05:16;20.90;;;10.65;;
33780;SDS011;20097;50.832;19.100;2023-01-28T23:16:18;20.23;;;11.50;;
33780;SDS011;20097;50.832;19.100;2023-01-28T23:21:40;24.25;;;11.38;;
33780;SDS011;20097;50.832;19.100;2023-01-28T23:27:03;18.45;;;9.35;;
33780;SDS011;20097;50.832;19.100;2023-01-28T23:32:09;20.33;;;10.13;;
33780;SDS011;20097;50.832;19.100;2023-01-28T23:37:14;17.90;;;9.80;;
33780;SDS011;20097;50.832;19.100;2023-01-28T23:42:19;15.10;;;8.90;;
33780;SDS011;20097;50.832;19.100;2023-01-28T23:47:26;15.63;;;9.57;;
33780;SDS011;20097;50.832;19.100;2023-01-28T23:52:31;13.23;;;8.02;;
